Time;durP1;ratioP1;P1;durP2;ratioP2;P2;SDS_P1;SDS_P2;PMS_P1;PMS_P2;Temp;Humidity;BMP_temperature;BMP_pressure;BME280_temperature;BME280_humidity;BME280_pressure;Samples;Min_cycle;Max_cycle;Signal;HPM_P1;HPM_P2
2022/05/15 00:02:19;;;;;;;;;;;;;;;23.70;31.78;99384.78;4467904;32;34250;-87
2022/05/15 00:04:47;;;;;;;;;;;;;;;23.71;30.67;99381.19;4465387;32;34298;-88
2022/05/15 00:07:14;;;;;;;;;;;;;;;23.48;30.98;99384.66;4452917;32;32730;-88
2022/05/15 00:09:41;;;;;;;;;;;;;;;23.98;31.16;99381.06;4468012;32;34088;-88
2022/05/15 00:12:09;;;;;;;;;;;;;;;24.14;31.33;99387.53;4467701;32;34417;-88
2022/05/15 00:14:36;;;;;;;;;;;;;;;24.15;30.99;99389.25;4453377;32;34014;-88
2022/05/15 00:17:04;;;;;;;;;;;;;;;23.49;31.37;99382.91;4467570;32;33410;-87
2022/05/15 00:19:31;;;;;;;;;;;;;;;23.68;31.42;99389.28;4465825;32;32334;-88
2022/05/15 00:21:58;;;;;;;;;;;;;;;24.02;30.60;99388.00;4483167;32;33606;-88
2022/05/15 00:24:28;;;;;;;;;;;;;;;24.06;31.20;99384.31;4483597;32;33979;-89
2022/05/15 00:26:55;;;;;;;;;;;;;;;24.16;31.21;99380.34;4483547;32;32860;-87
2022/05/15 00:29:22;;;;;;;;;;;;;;;23.95;31.57;99381.22;4469716;32;33612;-88
2022/05/15 00:31:50;;;;;;;;;;;;;;;24.05;31.19;99382.56;4467536;32;34911;-88
2022/05/15 00:34:17;;;;;;;;;;;;;;;24.21;31.13;99372.25;4453573;32;34599;-88
2022/05/15 00:36:45;;;;;;;;;;;;;;;23.73;31.77;99376.72;4467463;32;33349;-88
2022/05/15 00:39:12;;;;;;;;;;;;;;;23.73;31.73;99370.56;4468282;32;34410;-88
2022/05/15 00:41:39;;;;;;;;;;;;;;;23.87;31.59;99375.34;4467393;32;33917;-87
2022/05/15 00:44:07;;;;;;;;;;;;;;;23.72;32.01;99377.66;4467631;32;34566;-88
2022/05/15 00:46:39;;;;;;;;;;;;;;;23.69;31.81;99380.41;4453764;32;33502;-87
2022/05/15 00:49:08;;;;;;;;;;;;;;;23.70;31.79;99382.13;4453906;32;33305;-87
2022/05/15 00:51:54;;;;;;;;;;;;;;;23.71;31.71;99383.84;4468935;32;35144;-88
2022/05/15 00:54:33;;;;;;;;;;;;;;;23.49;32.15;99372.31;4482966;32;34168;-88
2022/05/15 00:57:18;;;;;;;;;;;;;;;23.59;31.89;99373.69;4470099;32;34556;-88
2022/05/15 00:59:48;;;;;;;;;;;;;;;23.64;31.80;99369.13;4466052;32;33900;-87
2022/05/15 01:02:17;;;;;;;;;;;;;;;23.46;32.24;99367.13;4466351;32;34134;-88
2022/05/15 01:04:44;;;;;;;;;;;;;;;23.50;32.30;99368.75;4466205;32;33883;-90
2022/05/15 01:07:12;;;;;;;;;;;;;;;23.49;32.18;99370.53;4466142;32;33772;-87
2022/05/15 01:09:40;;;;;;;;;;;;;;;23.52;31.98;99366.91;4481549;32;34031;-88
2022/05/15 01:12:07;;;;;;;;;;;;;;;23.39;32.34;99363.00;4482770;32;34377;-87
2022/05/15 01:14:35;;;;;;;;;;;;;;;23.47;32.17;99361.78;4482566;32;33957;-87
2022/05/15 01:17:03;;;;;;;;;;;;;;;23.41;32.37;99359.38;4454649;32;32836;-87
2022/05/15 01:19:32;;;;;;;;;;;;;;;23.31;32.62;99358.84;4469990;32;34514;-88
2022/05/15 01:22:00;;;;;;;;;;;;;;;23.23;32.68;99363.53;4469007;32;35084;-88
2022/05/15 01:24:27;;;;;;;;;;;;;;;23.31;32.47;99363.25;4469304;32;34214;-87
2022/05/15 01:26:55;;;;;;;;;;;;;;;23.40;32.29;99356.78;4455069;32;33312;-87
2022/05/15 01:29:26;;;;;;;;;;;;;;;23.35;32.42;99364.88;4455464;32;34197;-88
2022/05/15 01:31:53;;;;;;;;;;;;;;;23.37;32.31;99362.16;4469119;32;34075;-87
2022/05/15 01:34:21;;;;;;;;;;;;;;;23.30;32.41;99361.56;4454688;32;34435;-88
2022/05/15 01:36:49;;;;;;;;;;;;;;;23.25;32.46;99358.19;4469138;32;32993;-87
2022/05/15 01:39:16;;;;;;;;;;;;;;;23.21;32.54;99367.16;4466126;32;33835;-88
2022/05/15 01:41:43;;;;;;;;;;;;;;;23.06;32.57;99368.56;4468877;32;34265;-87
2022/05/15 01:44:11;;;;;;;;;;;;;;;23.22;32.50;99366.22;4468674;32;33981;-87
2022/05/15 01:46:38;;;;;;;;;;;;;;;23.14;32.39;99371.78;4454748;32;33539;-87
2022/05/15 01:49:06;;;;;;;;;;;;;;;23.02;32.69;99369.56;4463514;32;33694;-88
2022/05/15 01:51:34;;;;;;;;;;;;;;;22.97;32.79;99371.53;4470043;32;35186;-88
2022/05/15 01:54:02;;;;;;;;;;;;;;;23.07;32.74;99375.59;4470224;32;35642;-87
2022/05/15 01:56:29;;;;;;;;;;;;;;;22.86;33.10;99371.00;4469997;32;32737;-87
2022/05/15 01:58:57;;;;;;;;;;;;;;;22.99;32.74;99373.19;4468508;32;33702;-87
2022/05/15 02:01:25;;;;;;;;;;;;;;;22.88;33.25;99377.09;4470291;32;34914;-87
2022/05/15 02:03:53;;;;;;;;;;;;;;;22.77;33.38;99374.81;4484716;32;33978;-87
2022/05/15 02:06:21;;;;;;;;;;;;;;;22.87;33.22;99370.94;4482489;32;32806;-87
2022/05/15 02:08:48;;;;;;;;;;;;;;;23.03;32.85;99374.84;4465646;32;33926;-87
2022/05/15 02:11:16;;;;;;;;;;;;;;;23.02;32.86;99372.22;4468654;32;34867;-87
2022/05/15 02:13:43;;;;;;;;;;;;;;;23.19;32.45;99367.22;4468345;32;33605;-87
2022/05/15 02:16:10;;;;;;;;;;;;;;;23.09;32.84;99371.09;4471973;32;34139;-87
2022/05/15 02:18:39;;;;;;;;;;;;;;;23.21;32.61;99369.78;4482920;32;35100;-87
2022/05/15 02:21:06;;;;;;;;;;;;;;;22.95;33.08;99376.00;4475375;32;35084;-87
2022/05/15 02:23:33;;;;;;;;;;;;;;;22.92;33.12;99376.97;4468506;32;34007;-89
2022/05/15 02:26:02;;;;;;;;;;;;;;;22.97;32.93;99372.38;4468739;32;33467;-87
2022/05/15 02:28:29;;;;;;;;;;;;;;;23.05;32.59;99372.97;4462597;32;34194;-87
2022/05/15 02:30:57;;;;;;;;;;;;;;;22.88;33.06;99374.44;4469335;32;34398;-87
2022/05/15 02:33:31;;;;;;;;;;;;;;;22.90;32.87;99377.91;4468486;32;34896;-88
2022/05/15 02:35:58;;;;;;;;;;;;;;;22.94;32.77;99374.28;4468479;32;32944;-87
2022/05/15 02:38:27;;;;;;;;;;;;;;;23.19;32.61;99371.66;4454519;32;34184;-86
2022/05/15 02:40:54;;;;;;;;;;;;;;;23.10;32.46;99379.88;4483025;32;34445;-87
2022/05/15 02:43:21;;;;;;;;;;;;;;;23.10;32.50;99378.09;4483941;32;34274;-88
2022/05/15 02:45:49;;;;;;;;;;;;;;;23.04;32.49;99375.69;4483962;32;33571;-88
2022/05/15 02:51:05;;;;;;;;;;;;;;;22.72;32.89;99380.25;4483869;32;34586;-87
2022/05/15 02:53:34;;;;;;;;;;;;;;;22.83;32.99;99386.03;4479672;32;33737;-87
2022/05/15 02:56:03;;;;;;;;;;;;;;;22.97;32.81;99390.91;4469964;32;33949;-86
2022/05/15 02:58:31;;;;;;;;;;;;;;;22.86;32.87;99394.78;4470173;32;34372;-87
2022/05/15 03:00:58;;;;;;;;;;;;;;;22.88;33.09;99392.94;4482295;32;34139;-87
2022/05/15 03:03:26;;;;;;;;;;;;;;;22.99;32.89;99390.84;4484209;32;34129;-87
2022/05/15 03:05:54;;;;;;;;;;;;;;;22.99;32.63;99385.53;4483970;32;33423;-87
2022/05/15 03:08:21;;;;;;;;;;;;;;;23.16;32.30;99392.91;4477552;32;34924;-87
2022/05/15 03:10:48;;;;;;;;;;;;;;;23.14;32.39;99392.09;4456736;32;34145;-87
2022/05/15 03:13:16;;;;;;;;;;;;;;;23.15;32.20;99394.69;4468111;32;34085;-88
2022/05/15 03:15:43;;;;;;;;;;;;;;;23.15;32.11;99394.69;4468289;32;33324;-87
2022/05/15 03:18:11;;;;;;;;;;;;;;;23.20;32.03;99392.75;4468482;32;33770;-88
2022/05/15 03:20:38;;;;;;;;;;;;;;;22.90;32.66;99396.41;4473485;32;32977;-87
2022/05/15 03:23:06;;;;;;;;;;;;;;;23.17;32.20;99400.78;4468200;32;35130;-86
2022/05/15 03:25:34;;;;;;;;;;;;;;;23.36;32.03;99392.19;4468102;32;33361;-87
2022/05/15 03:28:04;;;;;;;;;;;;;;;23.22;32.15;99393.56;4468334;32;34972;-88
2022/05/15 03:30:32;;;;;;;;;;;;;;;23.03;32.64;99395.09;4474556;32;35221;-87
2022/05/15 03:33:00;;;;;;;;;;;;;;;23.10;32.72;99396.63;4483613;32;35220;-89
2022/05/15 03:35:27;;;;;;;;;;;;;;;23.16;32.61;99395.56;4468716;32;32964;-88
2022/05/15 03:37:55;;;;;;;;;;;;;;;23.30;32.40;99403.88;4467903;32;34310;-87
2022/05/15 03:40:22;;;;;;;;;;;;;;;23.18;32.52;99396.34;4468257;32;34560;-87
2022/05/15 03:42:54;;;;;;;;;;;;;;;23.26;32.44;99403.12;4467731;32;33809;-87
2022/05/15 03:45:21;;;;;;;;;;;;;;;23.39;32.25;99403.53;4468483;32;32916;-87
2022/05/15 03:47:53;;;;;;;;;;;;;;;23.31;32.36;99409.09;4484259;32;33458;-87
2022/05/15 03:50:21;;;;;;;;;;;;;;;23.38;32.34;99412.41;4482882;32;34790;-87
2022/05/15 03:52:49;;;;;;;;;;;;;;;23.30;32.39;99411.81;4454178;32;33591;-87
2022/05/15 03:55:16;;;;;;;;;;;;;;;23.34;32.52;99412.56;4462169;32;33576;-86
2022/05/15 03:57:43;;;;;;;;;;;;;;;23.28;32.73;99417.13;4483438;32;33387;-87
2022/05/15 04:00:13;;;;;;;;;;;;;;;23.13;33.42;99417.66;4468584;32;34266;-87
2022/05/15 04:02:41;;;;;;;;;;;;;;;23.41;32.97;99412.28;4454719;32;33895;-87
2022/05/15 04:05:09;;;;;;;;;;;;;;;23.48;32.71;99418.22;4467731;32;34208;-88
2022/05/15 04:07:43;;;;;;;;;;;;;;;23.46;32.86;99417.41;4468051;32;34840;-87
2022/05/15 04:10:11;;;;;;;;;;;;;;;23.48;33.08;99415.56;4468503;32;34326;-88
2022/05/15 04:12:39;;;;;;;;;;;;;;;23.86;32.78;99430.06;4481050;32;35375;-86
2022/05/15 04:15:07;;;;;;;;;;;;;;;24.28;31.96;99427.59;4469306;32;34069;-87
2022/05/15 04:17:45;;;;;;;;;;;;;;;24.55;31.67;99418.59;4468870;32;34189;-86
2022/05/15 04:20:13;;;;;;;;;;;;;;;24.57;31.95;99422.94;4468760;32;34996;-87
2022/05/15 04:22:42;;;;;;;;;;;;;;;25.06;31.42;99430.66;4453944;32;33900;-87
2022/05/15 04:25:11;;;;;;;;;;;;;;;25.54;30.77;99426.84;4467529;32;32899;-87
2022/05/15 04:27:39;;;;;;;;;;;;;;;25.57;30.70;99427.56;4467936;32;34052;-87
2022/05/15 04:30:07;;;;;;;;;;;;;;;26.04;30.28;99432.53;4454572;32;33877;-88
2022/05/15 04:32:35;;;;;;;;;;;;;;;26.64;29.96;99433.25;4453733;32;34060;-87
2022/05/15 04:35:02;;;;;;;;;;;;;;;26.89;29.18;99427.56;4467664;32;34074;-87
2022/05/15 04:37:30;;;;;;;;;;;;;;;27.10;29.49;99435.41;4453828;32;34246;-87
2022/05/15 04:39:57;;;;;;;;;;;;;;;27.63;28.54;99429.13;4467765;32;33863;-88
2022/05/15 04:42:24;;;;;;;;;;;;;;;27.65;28.42;99435.22;4482073;32;34041;-87
2022/05/15 04:44:52;;;;;;;;;;;;;;;27.88;28.46;99434.03;4483341;32;33094;-88
2022/05/15 04:47:19;;;;;;;;;;;;;;;27.96;28.10;99445.16;4482818;32;33905;-87
2022/05/15 04:49:46;;;;;;;;;;;;;;;28.28;27.61;99445.19;4469432;32;33832;-87
2022/05/15 04:52:13;;;;;;;;;;;;;;;28.37;27.68;99442.03;4467284;32;34176;-88
2022/05/15 04:54:41;;;;;;;;;;;;;;;28.48;27.92;99442.28;4467306;32;33372;-87
2022/05/15 04:57:08;;;;;;;;;;;;;;;29.03;27.08;99431.13;4453351;32;34352;-87
2022/05/15 04:59:36;;;;;;;;;;;;;;;28.62;27.25;99446.84;4467641;32;34265;-87
2022/05/15 05:02:04;;;;;;;;;;;;;;;28.95;27.21;99449.38;4478054;32;35065;-87
2022/05/15 05:04:31;;;;;;;;;;;;;;;29.35;26.84;99441.69;4483046;32;33171;-87
2022/05/15 05:06:58;;;;;;;;;;;;;;;29.46;26.81;99446.38;4482842;32;35128;-87
2022/05/15 05:09:26;;;;;;;;;;;;;;;29.67;26.21;99447.78;4482969;32;34081;-87
2022/05/15 05:11:53;;;;;;;;;;;;;;;29.32;26.46;99447.22;4473373;32;34317;-87
2022/05/15 05:14:21;;;;;;;;;;;;;;;29.51;26.41;99453.19;4467234;32;33644;-87
2022/05/15 05:16:48;;;;;;;;;;;;;;;29.26;27.38;99451.13;4466933;32;35078;-87
2022/05/15 05:19:15;;;;;;;;;;;;;;;29.45;27.16;99456.22;4474778;32;34437;-87
2022/05/15 05:21:43;;;;;;;;;;;;;;;29.34;27.71;99464.00;4480983;32;35124;-87
2022/05/15 05:24:10;;;;;;;;;;;;;;;29.46;27.19;99454.41;4482485;32;33436;-87
2022/05/15 05:26:37;;;;;;;;;;;;;;;29.26;27.75;99455.59;4482579;32;34051;-87
2022/05/15 05:29:04;;;;;;;;;;;;;;;29.36;27.29;99459.47;4482398;32;33988;-86
2022/05/15 05:31:32;;;;;;;;;;;;;;;29.41;27.28;99452.00;4480211;32;34346;-87
2022/05/15 05:33:59;;;;;;;;;;;;;;;29.35;27.40;99457.72;4482500;32;33449;-87
2022/05/15 05:36:27;;;;;;;;;;;;;;;29.21;27.53;99455.00;4482360;32;33708;-86
2022/05/15 05:38:54;;;;;;;;;;;;;;;29.43;27.72;99468.78;4481533;32;34483;-87
2022/05/15 05:41:21;;;;;;;;;;;;;;;29.47;27.64;99462.34;4479205;32;34220;-87
2022/05/15 05:43:49;;;;;;;;;;;;;;;29.35;27.99;99460.37;4466842;32;34305;-87
2022/05/15 05:46:17;;;;;;;;;;;;;;;29.45;28.20;99463.38;4466843;32;34051;-87
2022/05/15 05:48:46;;;;;;;;;;;;;;;28.59;28.60;99466.53;4466923;32;34445;-86
2022/05/15 05:51:14;;;;;;;;;;;;;;;28.93;29.37;99469.94;4468635;32;34459;-86
2022/05/15 05:53:42;;;;;;;;;;;;;;;27.91;30.85;99471.16;4481290;32;33424;-87
2022/05/15 05:56:09;;;;;;;;;;;;;;;26.98;31.03;99473.28;4468034;32;35197;-86
2022/05/15 05:58:36;;;;;;;;;;;;;;;27.97;30.04;99470.84;4482117;32;34358;-87
2022/05/15 06:01:04;;;;;;;;;;;;;;;27.46;30.74;99466.44;4466082;32;34172;-87
2022/05/15 06:06:17;;;;;;;;;;;;;;;28.07;28.69;99465.88;4483919;32;33852;-87
2022/05/15 06:08:45;;;;;;;;;;;;;;;28.56;27.74;99465.84;4484230;32;34558;-86
2022/05/15 06:11:12;;;;;;;;;;;;;;;29.51;26.24;99471.88;4482814;32;33686;-87
2022/05/15 06:13:39;;;;;;;;;;;;;;;29.41;25.94;99468.03;4455151;32;33346;-86
2022/05/15 06:16:07;;;;;;;;;;;;;;;30.00;25.38;99470.69;4474009;32;34348;-85
2022/05/15 06:18:34;;;;;;;;;;;;;;;29.03;24.65;99473.84;4477081;31;33651;-86
2022/05/15 06:21:02;;;;;;;;;;;;;;;30.17;23.96;99467.00;4468429;32;33945;-85
2022/05/15 06:23:29;;;;;;;;;;;;;;;29.50;23.26;99475.47;4484013;32;33456;-85
2022/05/15 06:25:57;;;;;;;;;;;;;;;28.85;24.54;99474.87;4484248;32;34387;-85
2022/05/15 06:28:24;;;;;;;;;;;;;;;29.06;23.09;99476.34;4483913;32;35278;-85
2022/05/15 06:30:51;;;;;;;;;;;;;;;29.24;23.47;99466.34;4469592;32;33821;-84
2022/05/15 06:33:19;;;;;;;;;;;;;;;28.98;23.23;99475.94;4484460;32;33385;-86
2022/05/15 06:35:46;;;;;;;;;;;;;;;28.65;21.97;99468.00;4484135;32;34188;-86
2022/05/15 06:38:13;;;;;;;;;;;;;;;28.84;23.43;99476.69;4469225;31;33978;-86
2022/05/15 06:40:41;;;;;;;;;;;;;;;30.04;20.78;99467.75;4484220;32;33723;-85
2022/05/15 06:43:09;;;;;;;;;;;;;;;28.10;21.63;99476.38;4482328;31;32958;-86
2022/05/15 06:45:36;;;;;;;;;;;;;;;29.76;21.42;99467.75;4483975;32;34264;-85
2022/05/15 06:48:04;;;;;;;;;;;;;;;29.46;22.53;99467.75;4481372;32;35347;-84
2022/05/15 06:50:31;;;;;;;;;;;;;;;29.08;21.62;99470.91;4478591;32;34517;-84
2022/05/15 06:52:59;;;;;;;;;;;;;;;29.06;21.44;99476.34;4468543;32;32921;-84
2022/05/15 06:55:26;;;;;;;;;;;;;;;29.91;20.95;99471.28;4478076;32;33480;-84
2022/05/15 06:57:54;;;;;;;;;;;;;;;29.75;20.56;99471.38;4469203;32;34381;-85
2022/05/15 07:00:22;;;;;;;;;;;;;;;30.03;21.60;99466.00;4483383;32;33806;-84
2022/05/15 07:02:49;;;;;;;;;;;;;;;30.38;21.90;99479.00;4483506;32;33476;-86
2022/05/15 07:05:20;;;;;;;;;;;;;;;30.05;22.25;99469.47;4483451;32;34967;-86
2022/05/15 07:07:47;;;;;;;;;;;;;;;29.81;21.09;99465.63;4483175;32;34252;-87
2022/05/15 07:10:15;;;;;;;;;;;;;;;28.71;22.17;99475.66;4482776;32;34007;-87
2022/05/15 07:12:43;;;;;;;;;;;;;;;29.15;21.52;99476.75;4483413;32;33439;-84
2022/05/15 07:15:11;;;;;;;;;;;;;;;28.84;21.97;99478.50;4483115;32;33462;-84
2022/05/15 07:17:38;;;;;;;;;;;;;;;29.41;21.02;99472.53;4483292;32;35287;-87
2022/05/15 07:20:05;;;;;;;;;;;;;;;27.33;23.28;99476.88;4482655;32;34014;-86
2022/05/15 07:22:33;;;;;;;;;;;;;;;29.33;21.74;99476.50;4483822;32;34268;-83
2022/05/15 07:25:00;;;;;;;;;;;;;;;29.21;21.16;99477.25;4483441;32;35062;-84
2022/05/15 07:27:27;;;;;;;;;;;;;;;27.62;22.92;99480.69;4482616;32;34735;-83
2022/05/15 07:29:55;;;;;;;;;;;;;;;28.90;20.41;99475.44;4471257;32;34239;-85
2022/05/15 07:32:22;;;;;;;;;;;;;;;29.12;21.30;99471.56;4475743;31;32915;-84
2022/05/15 07:34:50;;;;;;;;;;;;;;;29.04;22.02;99480.03;4474989;32;34839;-83
2022/05/15 07:37:17;;;;;;;;;;;;;;;30.55;20.91;99477.94;4472392;32;34318;-84
2022/05/15 07:39:44;;;;;;;;;;;;;;;28.62;23.95;99474.38;4472467;32;34882;-85
2022/05/15 07:42:11;;;;;;;;;;;;;;;29.70;23.04;99474.34;4483278;32;33305;-84
2022/05/15 07:44:39;;;;;;;;;;;;;;;29.68;22.49;99470.03;4468015;32;35169;-84
2022/05/15 07:47:08;;;;;;;;;;;;;;;29.67;22.85;99474.50;4455898;31;33862;-84
2022/05/15 07:49:42;;;;;;;;;;;;;;;29.68;21.42;99467.34;4482700;32;34577;-84
2022/05/15 07:52:10;;;;;;;;;;;;;;;30.20;21.60;99473.03;4469232;32;33847;-84
2022/05/15 07:54:37;;;;;;;;;;;;;;;29.09;23.39;99484.16;4486500;31;34308;-85
2022/05/15 07:57:05;;;;;;;;;;;;;;;28.36;24.40;99480.28;4466694;32;34277;-85
2022/05/15 07:59:32;;;;;;;;;;;;;;;29.21;24.55;99477.25;4466061;32;34191;-84
2022/05/15 08:02:02;;;;;;;;;;;;;;;29.37;21.36;99471.84;4468142;32;33310;-83
2022/05/15 08:04:29;;;;;;;;;;;;;;;30.24;20.84;99473.69;4470043;32;34143;-84
2022/05/15 08:09:43;;;;;;;;;;;;;;;29.96;21.35;99470.03;4476412;32;34946;-85
2022/05/15 08:12:10;;;;;;;;;;;;;;;29.14;23.80;99483.91;4463062;32;33378;-84
2022/05/15 08:14:37;;;;;;;;;;;;;;;28.11;23.70;99470.97;4467483;32;33941;-82
2022/05/15 08:17:05;;;;;;;;;;;;;;;29.91;22.23;99466.78;4474469;32;35165;-87
2022/05/15 08:25:05;;;;;;;;;;;;;;;28.68;23.91;99477.63;4477927;32;34146;-86
2022/05/15 08:27:33;;;;;;;;;;;;;;;27.93;24.19;99473.78;4471441;32;33946;-86
2022/05/15 08:30:00;;;;;;;;;;;;;;;28.56;23.79;99473.84;4477760;32;34810;-86
2022/05/15 08:32:27;;;;;;;;;;;;;;;28.97;24.12;99474.16;4481500;32;33982;-87
2022/05/15 08:34:55;;;;;;;;;;;;;;;28.96;24.08;99475.09;4477311;32;34223;-86
2022/05/15 08:37:22;;;;;;;;;;;;;;;29.68;23.10;99473.56;4456883;32;34084;-84
2022/05/15 08:39:50;;;;;;;;;;;;;;;29.02;22.69;99480.13;4471712;32;34032;-86
2022/05/15 08:42:22;;;;;;;;;;;;;;;30.00;20.97;99473.38;4486461;31;33343;-86
2022/05/15 08:44:50;;;;;;;;;;;;;;;29.15;21.80;99482.09;4474581;32;34264;-82
2022/05/15 08:47:31;;;;;;;;;;;;;;;28.96;21.92;99480.44;4467818;32;35302;-84
2022/05/15 08:49:59;;;;;;;;;;;;;;;29.68;21.47;99473.56;4459986;32;34870;-82
2022/05/15 08:52:34;;;;;;;;;;;;;;;29.31;21.29;99490.91;4461596;32;33299;-85
2022/05/15 08:55:11;;;;;;;;;;;;;;;30.28;20.15;99472.53;4460451;32;34137;-83
2022/05/15 08:57:56;;;;;;;;;;;;;;;28.62;22.84;99477.03;4462245;32;34138;-83
2022/05/15 09:00:24;;;;;;;;;;;;;;;28.03;22.50;99475.81;4462182;32;33769;-84
2022/05/15 09:02:51;;;;;;;;;;;;;;;29.05;21.75;99477.25;4466438;32;34277;-84
2022/05/15 09:05:19;;;;;;;;;;;;;;;29.04;21.72;99475.56;4466355;32;34836;-86
2022/05/15 09:07:53;;;;;;;;;;;;;;;30.01;21.12;99470.62;4460678;32;35241;-84
2022/05/15 09:10:28;;;;;;;;;;;;;;;28.79;22.52;99469.88;4459325;32;34518;-84
2022/05/15 09:13:05;;;;;;;;;;;;;;;28.88;21.69;99472.03;4457827;32;33512;-83
2022/05/15 09:15:33;;;;;;;;;;;;;;;30.64;21.98;99471.09;4449144;32;33589;-83
2022/05/15 09:18:03;;;;;;;;;;;;;;;29.07;22.30;99467.37;4464340;32;33875;-83
2022/05/15 09:20:33;;;;;;;;;;;;;;;30.38;20.76;99464.75;4457939;32;33880;-82
2022/05/15 09:23:03;;;;;;;;;;;;;;;30.08;22.08;99467.53;4461261;32;33627;-82
2022/05/15 09:25:34;;;;;;;;;;;;;;;29.36;20.85;99464.78;4454788;32;34006;-82
2022/05/15 09:28:03;;;;;;;;;;;;;;;29.72;21.66;99474.22;4462122;32;34598;-82
2022/05/15 09:30:33;;;;;;;;;;;;;;;30.38;19.83;99462.94;4464913;32;33901;-82
2022/05/15 09:33:00;;;;;;;;;;;;;;;30.60;20.86;99464.25;4446562;32;31457;-83
2022/05/15 09:35:38;;;;;;;;;;;;;;;30.70;20.00;99466.22;4457680;32;34249;-82
2022/05/15 09:43:51;;;;;;;;;;;;;;;28.97;20.33;99466.16;4466519;32;32803;-83
2022/05/15 09:46:19;;;;;;;;;;;;;;;30.74;20.00;99462.41;4467207;32;34361;-82
2022/05/15 09:48:55;;;;;;;;;;;;;;;29.92;21.30;99460.47;4462341;32;34163;-83
2022/05/15 09:51:25;;;;;;;;;;;;;;;29.50;22.15;99464.81;4468834;32;34449;-82
2022/05/15 09:53:54;;;;;;;;;;;;;;;30.19;21.72;99465.06;4466546;32;33683;-82
2022/05/15 09:56:25;;;;;;;;;;;;;;;29.29;21.09;99466.13;4475223;32;34674;-82
2022/05/15 09:58:56;;;;;;;;;;;;;;;30.43;20.92;99462.66;4462979;32;35172;-83
2022/05/15 10:01:27;;;;;;;;;;;;;;;29.72;21.66;99461.72;4482236;31;34688;-82
2022/05/15 10:03:56;;;;;;;;;;;;;;;29.67;21.56;99457.63;4474547;32;33109;-82
2022/05/15 10:06:29;;;;;;;;;;;;;;;31.05;20.12;99462.19;4483225;32;33958;-83
2022/05/15 10:09:23;;;;;;;;;;;;;;;30.25;21.27;99459.34;4468734;32;34064;-82
2022/05/15 10:11:51;;;;;;;;;;;;;;;31.01;19.94;99459.72;4458232;32;34314;-83
2022/05/15 10:14:27;;;;;;;;;;;;;;;30.48;20.95;99449.84;4465405;32;32872;-83
2022/05/15 10:16:55;;;;;;;;;;;;;;;30.23;20.84;99458.56;4463406;32;34138;-84
2022/05/15 10:19:34;;;;;;;;;;;;;;;30.24;20.57;99450.47;4463795;32;34085;-84
2022/05/15 10:22:10;;;;;;;;;;;;;;;29.79;20.96;99444.34;4459176;32;34868;-84
2022/05/15 10:24:42;;;;;;;;;;;;;;;29.54;22.10;99444.09;4476285;32;33019;-83
2022/05/15 10:27:10;;;;;;;;;;;;;;;29.48;21.40;99442.69;4468130;32;33765;-84
2022/05/15 10:29:40;;;;;;;;;;;;;;;29.02;21.64;99445.44;4467821;32;34836;-83
2022/05/15 10:32:15;;;;;;;;;;;;;;;29.75;21.54;99444.66;4454237;32;34714;-83
2022/05/15 10:34:43;;;;;;;;;;;;;;;30.12;21.74;99436.97;4465008;32;33609;-83
2022/05/15 10:37:13;;;;;;;;;;;;;;;30.03;20.57;99443.78;4453550;32;35175;-85
2022/05/15 10:39:59;;;;;;;;;;;;;;;29.48;22.61;99437.34;4453815;32;34858;-85
2022/05/15 10:42:27;;;;;;;;;;;;;;;29.24;21.98;99441.47;4479014;32;34548;-83
2022/05/15 10:45:14;;;;;;;;;;;;;;;29.00;22.92;99446.47;4483210;32;33558;-84
2022/05/15 10:47:45;;;;;;;;;;;;;;;29.84;21.52;99433.38;4480116;32;34916;-84
2022/05/15 10:50:18;;;;;;;;;;;;;;;30.38;19.67;99433.50;4468551;32;34371;-84
2022/05/15 10:52:51;;;;;;;;;;;;;;;29.38;22.38;99428.16;4469888;32;34575;-84
2022/05/15 10:58:20;;;;;;;;;;;;;;;30.05;21.54;99432.03;4471421;32;33898;-85
2022/05/15 11:00:50;;;;;;;;;;;;;;;29.97;22.39;99423.66;4468478;32;33984;-84
2022/05/15 11:03:36;;;;;;;;;;;;;;;30.31;22.27;99424.19;4483615;32;34207;-85
2022/05/15 11:06:22;;;;;;;;;;;;;;;30.20;21.45;99427.56;4483631;32;34367;-84
2022/05/15 11:08:55;;;;;;;;;;;;;;;30.47;20.19;99421.37;4469140;32;35135;-83
2022/05/15 11:11:41;;;;;;;;;;;;;;;29.82;21.10;99419.25;4469011;32;34612;-83
2022/05/15 11:14:12;;;;;;;;;;;;;;;29.52;20.38;99419.31;4483557;32;33849;-84
2022/05/15 11:17:00;;;;;;;;;;;;;;;30.01;22.30;99422.50;4483623;32;33142;-84
2022/05/15 11:19:34;;;;;;;;;;;;;;;30.32;20.46;99417.88;4483445;32;33873;-85
2022/05/15 11:22:11;;;;;;;;;;;;;;;30.52;20.06;99412.09;4483119;32;34848;-84
2022/05/15 11:24:48;;;;;;;;;;;;;;;29.45;20.42;99416.16;4469296;32;34257;-84
2022/05/15 11:27:35;;;;;;;;;;;;;;;28.88;21.53;99410.66;4480686;32;33411;-84
2022/05/15 11:30:07;;;;;;;;;;;;;;;29.96;21.38;99415.69;4462960;32;34880;-84
2022/05/15 11:32:46;;;;;;;;;;;;;;;29.75;19.91;99404.56;4468618;32;33371;-85
2022/05/15 11:35:20;;;;;;;;;;;;;;;30.37;21.05;99398.84;4478959;32;34091;-84
2022/05/15 11:37:50;;;;;;;;;;;;;;;30.26;20.19;99407.56;4482462;32;33310;-86
2022/05/15 11:40:47;;;;;;;;;;;;;;;31.50;19.59;99396.59;4482957;31;35353;-84
2022/05/15 11:43:23;;;;;;;;;;;;;;;30.76;19.43;99392.72;4472168;32;35154;-85
2022/05/15 11:45:51;;;;;;;;;;;;;;;31.57;20.15;99386.31;4477402;32;35128;-86
2022/05/15 11:48:25;;;;;;;;;;;;;;;30.39;21.26;99389.78;4467482;32;33357;-86
2022/05/15 11:50:54;;;;;;;;;;;;;;;30.89;20.50;99382.91;4449187;32;34860;-85
2022/05/15 11:53:25;;;;;;;;;;;;;;;30.44;20.71;99374.28;4467075;32;34151;-84
2022/05/15 11:55:53;;;;;;;;;;;;;;;30.47;20.91;99389.28;4466257;32;34983;-85
2022/05/15 11:58:36;;;;;;;;;;;;;;;30.33;21.22;99392.84;4466339;32;33808;-85
2022/05/15 12:01:12;;;;;;;;;;;;;;;30.00;22.34;99394.03;4466429;32;33601;-84
2022/05/15 12:03:42;;;;;;;;;;;;;;;30.52;21.42;99390.69;4465530;32;35355;-85
2022/05/15 12:06:11;;;;;;;;;;;;;;;31.02;20.86;99386.44;4467272;32;34099;-86
2022/05/15 12:08:38;;;;;;;;;;;;;;;30.54;20.09;99386.09;4466157;32;33296;-86
2022/05/15 12:11:18;;;;;;;;;;;;;;;30.46;20.22;99369.69;4467543;32;33982;-86
2022/05/15 12:13:46;;;;;;;;;;;;;;;30.73;21.22;99371.50;4467154;32;34821;-85
2022/05/15 12:16:22;;;;;;;;;;;;;;;30.58;20.07;99373.38;4467499;32;34100;-81
2022/05/15 12:18:57;;;;;;;;;;;;;;;30.26;20.79;99376.34;4467154;32;34011;-85
2022/05/15 12:21:29;;;;;;;;;;;;;;;30.64;20.81;99372.09;4461105;32;34005;-84
2022/05/15 12:26:51;;;;;;;;;;;;;;;31.61;20.68;99361.88;4450747;32;34492;-84
2022/05/15 12:29:27;;;;;;;;;;;;;;;31.43;19.67;99361.34;4466540;32;32874;-86
2022/05/15 12:31:55;;;;;;;;;;;;;;;30.88;21.19;99357.09;4460201;32;34036;-84
2022/05/15 12:34:34;;;;;;;;;;;;;;;31.21;20.31;99350.38;4464947;32;34491;-85
2022/05/15 12:37:03;;;;;;;;;;;;;;;31.23;21.03;99356.50;4462008;32;34200;-84
2022/05/15 12:39:31;;;;;;;;;;;;;;;31.69;21.05;99364.00;4451514;32;33808;-85
2022/05/15 12:41:59;;;;;;;;;;;;;;;31.96;19.58;99354.00;4450141;32;33857;-85
2022/05/15 12:44:28;;;;;;;;;;;;;;;30.08;21.46;99360.59;4462682;32;33794;-85
2022/05/15 12:46:56;;;;;;;;;;;;;;;31.12;19.68;99345.66;4456125;32;35043;-86
2022/05/15 12:49:39;;;;;;;;;;;;;;;30.68;21.85;99347.69;4471525;32;33508;-84
2022/05/15 12:52:10;;;;;;;;;;;;;;;31.32;19.76;99339.81;4481453;32;35014;-85
2022/05/15 12:54:39;;;;;;;;;;;;;;;30.90;20.59;99346.28;4469026;32;34288;-86
2022/05/15 12:57:07;;;;;;;;;;;;;;;31.09;21.22;99330.66;4481386;32;33864;-85
2022/05/15 12:59:35;;;;;;;;;;;;;;;31.35;18.96;99334.22;4481523;32;33341;-86
2022/05/15 13:02:15;;;;;;;;;;;;;;;30.20;20.05;99338.47;4475983;32;34206;-86
2022/05/15 13:04:45;;;;;;;;;;;;;;;30.60;19.81;99330.44;4475830;32;34230;-85
2022/05/15 13:07:12;;;;;;;;;;;;;;;31.05;18.69;99331.84;4479460;32;33715;-84
2022/05/15 13:09:40;;;;;;;;;;;;;;;32.03;18.94;99327.59;4477690;32;33920;-85
2022/05/15 13:12:10;;;;;;;;;;;;;;;32.04;18.83;99326.62;4475427;32;33987;-86
2022/05/15 13:14:38;;;;;;;;;;;;;;;31.27;19.72;99323.16;4480793;32;34189;-84
2022/05/15 13:17:06;;;;;;;;;;;;;;;31.27;19.23;99325.84;4482373;32;35134;-83
2022/05/15 13:19:34;;;;;;;;;;;;;;;31.29;19.09;99317.69;4480378;32;34036;-82
2022/05/15 13:22:02;;;;;;;;;;;;;;;32.12;18.44;99316.19;4466694;32;33635;-83
2022/05/15 13:24:32;;;;;;;;;;;;;;;32.39;18.82;99321.34;4459890;32;34359;-83
2022/05/15 13:27:04;;;;;;;;;;;;;;;31.47;18.55;99319.09;4469072;32;35183;-86